sensor_id;sensor_type;location;lat;lon;timestamp;P1;durP1;ratioP1;P2;durP2;ratioP2
56343;SDS011;42245;42.058;24.700;2022-07-10T00:01:02;5.60;;;4.65;;
56343;SDS011;42245;42.058;24.700;2022-07-10T00:03:28;5.07;;;4.40;;
56343;SDS011;42245;42.058;24.700;2022-07-10T00:05:53;5.65;;;4.80;;
56343;SDS011;42245;42.058;24.700;2022-07-10T00:08:19;7.32;;;4.90;;
56343;SDS011;42245;42.058;24.700;2022-07-10T00:10:44;6.30;;;4.93;;
56343;SDS011;42245;42.058;24.700;2022-07-10T00:13:10;7.88;;;5.03;;
56343;SDS011;42245;42.058;24.700;2022-07-10T00:15:35;7.45;;;4.93;;
56343;SDS011;42245;42.058;24.700;2022-07-10T00:18:01;6.65;;;4.78;;
56343;SDS011;42245;42.058;24.700;2022-07-10T00:20:26;6.95;;;5.15;;
56343;SDS011;42245;42.058;24.700;2022-07-10T00:22:52;6.88;;;4.68;;
56343;SDS011;42245;42.058;24.700;2022-07-10T00:25:17;6.35;;;5.00;;
56343;SDS011;42245;42.058;24.700;2022-07-10T00:27:42;5.82;;;5.05;;
56343;SDS011;42245;42.058;24.700;2022-07-10T00:30:09;6.22;;;4.65;;
56343;SDS011;42245;42.058;24.700;2022-07-10T00:32:35;6.88;;;4.90;;
56343;SDS011;42245;42.058;24.700;2022-07-10T00:35:01;6.22;;;4.88;;
56343;SDS011;42245;42.058;24.700;2022-07-10T00:37:29;5.03;;;4.53;;
56343;SDS011;42245;42.058;24.700;2022-07-10T00:39:55;6.28;;;4.78;;
56343;SDS011;42245;42.058;24.700;2022-07-10T00:42:20;5.00;;;4.50;;
56343;SDS011;42245;42.058;24.700;2022-07-10T00:44:46;5.90;;;5.28;;
56343;SDS011;42245;42.058;24.700;2022-07-10T00:47:12;5.30;;;4.80;;
56343;SDS011;42245;42.058;24.700;2022-07-10T00:49:39;7.53;;;4.78;;
56343;SDS011;42245;42.058;24.700;2022-07-10T00:52:08;6.95;;;4.70;;
56343;SDS011;42245;42.058;24.700;2022-07-10T00:54:35;6.70;;;4.70;;
56343;SDS011;42245;42.058;24.700;2022-07-10T00:57:03;8.48;;;4.70;;
56343;SDS011;42245;42.058;24.700;2022-07-10T00:59:30;5.60;;;4.40;;
56343;SDS011;42245;42.058;24.700;2022-07-10T01:01:56;7.22;;;4.50;;
56343;SDS011;42245;42.058;24.700;2022-07-10T01:04:21;5.80;;;4.65;;
56343;SDS011;42245;42.058;24.700;2022-07-10T01:06:47;9.82;;;5.25;;
56343;SDS011;42245;42.058;24.700;2022-07-10T01:09:12;5.15;;;4.47;;
56343;SDS011;42245;42.058;24.700;2022-07-10T01:11:38;6.40;;;4.90;;
56343;SDS011;42245;42.058;24.700;2022-07-10T01:14:03;5.65;;;5.05;;
56343;SDS011;42245;42.058;24.700;2022-07-10T01:16:29;5.47;;;4.72;;
56343;SDS011;42245;42.058;24.700;2022-07-10T01:18:56;7.47;;;4.95;;
56343;SDS011;42245;42.058;24.700;2022-07-10T01:21:28;5.38;;;4.65;;
56343;SDS011;42245;42.058;24.700;2022-07-10T01:23:56;5.90;;;4.45;;
56343;SDS011;42245;42.058;24.700;2022-07-10T01:26:22;5.45;;;4.88;;
56343;SDS011;42245;42.058;24.700;2022-07-10T01:28:52;5.28;;;4.70;;
56343;SDS011;42245;42.058;24.700;2022-07-10T01:31:19;9.07;;;4.65;;
56343;SDS011;42245;42.058;24.700;2022-07-10T01:33:45;6.60;;;4.90;;
56343;SDS011;42245;42.058;24.700;2022-07-10T01:36:11;5.78;;;4.85;;
56343;SDS011;42245;42.058;24.700;2022-07-10T01:38:37;8.40;;;4.80;;
56343;SDS011;42245;42.058;24.700;2022-07-10T01:41:04;5.72;;;5.00;;
56343;SDS011;42245;42.058;24.700;2022-07-10T01:43:29;4.65;;;4.22;;
56343;SDS011;42245;42.058;24.700;2022-07-10T01:45:55;7.13;;;4.90;;
56343;SDS011;42245;42.058;24.700;2022-07-10T01:48:20;5.97;;;4.80;;
56343;SDS011;42245;42.058;24.700;2022-07-10T01:50:46;6.60;;;4.93;;
56343;SDS011;42245;42.058;24.700;2022-07-10T01:53:11;6.30;;;4.90;;
56343;SDS011;42245;42.058;24.700;2022-07-10T01:55:37;7.28;;;5.00;;
56343;SDS011;42245;42.058;24.700;2022-07-10T01:58:02;6.93;;;4.90;;
56343;SDS011;42245;42.058;24.700;2022-07-10T02:00:28;7.40;;;5.10;;
56343;SDS011;42245;42.058;24.700;2022-07-10T02:02:53;6.47;;;4.82;;
56343;SDS011;42245;42.058;24.700;2022-07-10T02:05:37;5.88;;;4.88;;
56343;SDS011;42245;42.058;24.700;2022-07-10T02:08:03;6.35;;;4.72;;
56343;SDS011;42245;42.058;24.700;2022-07-10T02:10:28;6.05;;;5.15;;
56343;SDS011;42245;42.058;24.700;2022-07-10T02:12:54;6.05;;;5.05;;
56343;SDS011;42245;42.058;24.700;2022-07-10T02:15:21;6.13;;;5.53;;
56343;SDS011;42245;42.058;24.700;2022-07-10T02:17:47;9.90;;;5.38;;
56343;SDS011;42245;42.058;24.700;2022-07-10T02:20:12;9.13;;;5.78;;
56343;SDS011;42245;42.058;24.700;2022-07-10T02:22:38;8.30;;;5.80;;
56343;SDS011;42245;42.058;24.700;2022-07-10T02:25:03;9.57;;;5.47;;
56343;SDS011;42245;42.058;24.700;2022-07-10T02:27:29;6.20;;;5.25;;
56343;SDS011;42245;42.058;24.700;2022-07-10T02:29:54;7.35;;;4.78;;
56343;SDS011;42245;42.058;24.700;2022-07-10T02:32:20;7.13;;;5.07;;
56343;SDS011;42245;42.058;24.700;2022-07-10T02:34:46;10.38;;;5.30;;
56343;SDS011;42245;42.058;24.700;2022-07-10T02:37:11;8.20;;;5.57;;
56343;SDS011;42245;42.058;24.700;2022-07-10T02:39:37;6.00;;;5.40;;
56343;SDS011;42245;42.058;24.700;2022-07-10T02:42:02;6.75;;;5.00;;
56343;SDS011;42245;42.058;24.700;2022-07-10T02:44:28;6.93;;;5.15;;
56343;SDS011;42245;42.058;24.700;2022-07-10T02:46:54;6.00;;;5.40;;
56343;SDS011;42245;42.058;24.700;2022-07-10T02:49:19;7.00;;;5.07;;
56343;SDS011;42245;42.058;24.700;2022-07-10T02:51:45;6.65;;;5.50;;
56343;SDS011;42245;42.058;24.700;2022-07-10T02:54:10;6.10;;;5.00;;
56343;SDS011;42245;42.058;24.700;2022-07-10T02:56:36;6.53;;;5.13;;
56343;SDS011;42245;42.058;24.700;2022-07-10T02:59:01;6.78;;;6.00;;
56343;SDS011;42245;42.058;24.700;2022-07-10T03:01:27;7.72;;;5.68;;
56343;SDS011;42245;42.058;24.700;2022-07-10T03:03:52;7.00;;;5.78;;
56343;SDS011;42245;42.058;24.700;2022-07-10T03:06:17;7.03;;;5.47;;
56343;SDS011;42245;42.058;24.700;2022-07-10T03:08:43;7.65;;;5.68;;
56343;SDS011;42245;42.058;24.700;2022-07-10T03:11:08;9.23;;;5.70;;
56343;SDS011;42245;42.058;24.700;2022-07-10T03:13:34;7.50;;;5.43;;
56343;SDS011;42245;42.058;24.700;2022-07-10T03:15:59;8.52;;;5.70;;
56343;SDS011;42245;42.058;24.700;2022-07-10T03:18:25;10.40;;;5.80;;
56343;SDS011;42245;42.058;24.700;2022-07-10T03:20:50;7.40;;;5.75;;
56343;SDS011;42245;42.058;24.700;2022-07-10T03:23:16;6.70;;;6.00;;
56343;SDS011;42245;42.058;24.700;2022-07-10T03:25:41;7.97;;;5.70;;
56343;SDS011;42245;42.058;24.700;2022-07-10T03:28:06;5.85;;;5.25;;
56343;SDS011;42245;42.058;24.700;2022-07-10T03:30:32;6.97;;;5.93;;
56343;SDS011;42245;42.058;24.700;2022-07-10T03:32:57;6.35;;;5.75;;
56343;SDS011;42245;42.058;24.700;2022-07-10T03:35:23;8.05;;;5.95;;
56343;SDS011;42245;42.058;24.700;2022-07-10T03:37:50;8.85;;;5.82;;
56343;SDS011;42245;42.058;24.700;2022-07-10T03:40:16;12.80;;;5.70;;
56343;SDS011;42245;42.058;24.700;2022-07-10T03:42:41;6.88;;;5.75;;
56343;SDS011;42245;42.058;24.700;2022-07-10T03:45:07;6.43;;;5.82;;
56343;SDS011;42245;42.058;24.700;2022-07-10T03:47:32;6.90;;;6.00;;
56343;SDS011;42245;42.058;24.700;2022-07-10T03:49:58;10.88;;;5.85;;
56343;SDS011;42245;42.058;24.700;2022-07-10T03:52:23;7.93;;;6.28;;
56343;SDS011;42245;42.058;24.700;2022-07-10T03:54:49;6.47;;;5.75;;
56343;SDS011;42245;42.058;24.700;2022-07-10T03:57:14;6.15;;;5.53;;
56343;SDS011;42245;42.058;24.700;2022-07-10T03:59:58;6.70;;;6.00;;
56343;SDS011;42245;42.058;24.700;2022-07-10T04:02:23;10.02;;;5.88;;
56343;SDS011;42245;42.058;24.700;2022-07-10T04:04:49;7.40;;;6.03;;
56343;SDS011;42245;42.058;24.700;2022-07-10T04:07:14;9.10;;;6.03;;
56343;SDS011;42245;42.058;24.700;2022-07-10T04:09:41;6.80;;;5.75;;
56343;SDS011;42245;42.058;24.700;2022-07-10T04:12:07;8.35;;;6.43;;
56343;SDS011;42245;42.058;24.700;2022-07-10T04:14:32;8.27;;;6.38;;
56343;SDS011;42245;42.058;24.700;2022-07-10T04:16:58;6.80;;;6.10;;
56343;SDS011;42245;42.058;24.700;2022-07-10T04:19:23;7.05;;;5.90;;
56343;SDS011;42245;42.058;24.700;2022-07-10T04:21:48;7.63;;;6.18;;
56343;SDS011;42245;42.058;24.700;2022-07-10T04:24:14;7.05;;;6.00;;
56343;SDS011;42245;42.058;24.700;2022-07-10T04:26:39;6.88;;;5.50;;
56343;SDS011;42245;42.058;24.700;2022-07-10T04:29:05;10.73;;;5.68;;
56343;SDS011;42245;42.058;24.700;2022-07-10T04:31:30;6.95;;;5.75;;
56343;SDS011;42245;42.058;24.700;2022-07-10T04:33:56;6.88;;;6.15;;
56343;SDS011;42245;42.058;24.700;2022-07-10T04:36:23;10.10;;;6.25;;
56343;SDS011;42245;42.058;24.700;2022-07-10T04:38:49;7.00;;;5.63;;
56343;SDS011;42245;42.058;24.700;2022-07-10T04:41:14;6.57;;;5.97;;
56343;SDS011;42245;42.058;24.700;2022-07-10T04:43:40;6.60;;;6.00;;
56343;SDS011;42245;42.058;24.700;2022-07-10T04:46:05;6.35;;;5.75;;
56343;SDS011;42245;42.058;24.700;2022-07-10T04:48:32;7.65;;;6.00;;
56343;SDS011;42245;42.058;24.700;2022-07-10T04:50:57;9.00;;;5.95;;
56343;SDS011;42245;42.058;24.700;2022-07-10T04:53:23;6.03;;;5.43;;
56343;SDS011;42245;42.058;24.700;2022-07-10T04:55:48;7.13;;;5.18;;
56343;SDS011;42245;42.058;24.700;2022-07-10T04:58:14;6.32;;;5.22;;
56343;SDS011;42245;42.058;24.700;2022-07-10T05:00:39;7.32;;;6.00;;
56343;SDS011;42245;42.058;24.700;2022-07-10T05:03:05;6.20;;;5.60;;
56343;SDS011;42245;42.058;24.700;2022-07-10T05:05:30;5.97;;;5.45;;
56343;SDS011;42245;42.058;24.700;2022-07-10T05:07:55;5.85;;;5.25;;
56343;SDS011;42245;42.058;24.700;2022-07-10T05:10:21;9.18;;;5.38;;
56343;SDS011;42245;42.058;24.700;2022-07-10T05:12:46;8.65;;;6.13;;
56343;SDS011;42245;42.058;24.700;2022-07-10T05:15:12;6.45;;;5.30;;
56343;SDS011;42245;42.058;24.700;2022-07-10T05:17:37;7.55;;;5.43;;
56343;SDS011;42245;42.058;24.700;2022-07-10T05:20:03;5.70;;;5.20;;
56343;SDS011;42245;42.058;24.700;2022-07-10T05:22:29;7.85;;;5.40;;
56343;SDS011;42245;42.058;24.700;2022-07-10T05:24:55;5.50;;;5.00;;
56343;SDS011;42245;42.058;24.700;2022-07-10T05:27:21;5.80;;;5.20;;
56343;SDS011;42245;42.058;24.700;2022-07-10T05:29:47;5.60;;;5.10;;
56343;SDS011;42245;42.058;24.700;2022-07-10T05:32:12;7.85;;;5.43;;
56343;SDS011;42245;42.058;24.700;2022-07-10T05:34:38;7.63;;;4.80;;
56343;SDS011;42245;42.058;24.700;2022-07-10T05:37:04;6.47;;;5.43;;
56343;SDS011;42245;42.058;24.700;2022-07-10T05:39:29;5.25;;;4.75;;
56343;SDS011;42245;42.058;24.700;2022-07-10T05:41:55;5.72;;;5.03;;
56343;SDS011;42245;42.058;24.700;2022-07-10T05:44:22;5.78;;;4.97;;
56343;SDS011;42245;42.058;24.700;2022-07-10T05:46:48;5.78;;;5.07;;
56343;SDS011;42245;42.058;24.700;2022-07-10T05:49:13;5.45;;;4.95;;
56343;SDS011;42245;42.058;24.700;2022-07-10T05:51:39;6.00;;;5.40;;
56343;SDS011;42245;42.058;24.700;2022-07-10T05:54:04;5.80;;;5.20;;
56343;SDS011;42245;42.058;24.700;2022-07-10T05:56:30;7.93;;;5.35;;
56343;SDS011;42245;42.058;24.700;2022-07-10T05:58:56;5.72;;;4.68;;
56343;SDS011;42245;42.058;24.700;2022-07-10T06:01:22;8.00;;;5.93;;
56343;SDS011;42245;42.058;24.700;2022-07-10T06:03:48;7.07;;;5.43;;
56343;SDS011;42245;42.058;24.700;2022-07-10T06:06:14;5.82;;;5.22;;
56343;SDS011;42245;42.058;24.700;2022-07-10T06:08:42;5.47;;;4.97;;
56343;SDS011;42245;42.058;24.700;2022-07-10T06:11:09;6.13;;;5.10;;
56343;SDS011;42245;42.058;24.700;2022-07-10T06:13:35;8.43;;;5.15;;
56343;SDS011;42245;42.058;24.700;2022-07-10T06:16:01;6.97;;;5.13;;
56343;SDS011;42245;42.058;24.700;2022-07-10T06:18:26;7.15;;;5.15;;
56343;SDS011;42245;42.058;24.700;2022-07-10T06:20:52;5.47;;;4.97;;
56343;SDS011;42245;42.058;24.700;2022-07-10T06:23:17;9.63;;;5.47;;
56343;SDS011;42245;42.058;24.700;2022-07-10T06:25:43;6.95;;;5.57;;
56343;SDS011;42245;42.058;24.700;2022-07-10T06:28:08;6.05;;;5.43;;
56343;SDS011;42245;42.058;24.700;2022-07-10T06:30:33;5.60;;;5.10;;
56343;SDS011;42245;42.058;24.700;2022-07-10T06:32:59;7.30;;;5.80;;
56343;SDS011;42245;42.058;24.700;2022-07-10T06:35:24;6.35;;;5.75;;
56343;SDS011;42245;42.058;24.700;2022-07-10T06:37:50;6.25;;;5.65;;
56343;SDS011;42245;42.058;24.700;2022-07-10T06:40:16;7.82;;;5.70;;
56343;SDS011;42245;42.058;24.700;2022-07-10T06:42:42;5.85;;;5.35;;
56343;SDS011;42245;42.058;24.700;2022-07-10T06:45:08;10.05;;;5.63;;
56343;SDS011;42245;42.058;24.700;2022-07-10T06:47:34;7.45;;;5.70;;
56343;SDS011;42245;42.058;24.700;2022-07-10T06:50:31;5.90;;;5.30;;
56343;SDS011;42245;42.058;24.700;2022-07-10T06:52:57;5.93;;;5.32;;
56343;SDS011;42245;42.058;24.700;2022-07-10T06:55:23;6.53;;;5.40;;
56343;SDS011;42245;42.058;24.700;2022-07-10T06:57:49;8.32;;;5.53;;
56343;SDS011;42245;42.058;24.700;2022-07-10T07:00:15;6.10;;;5.60;;
56343;SDS011;42245;42.058;24.700;2022-07-10T07:02:41;6.30;;;5.70;;
56343;SDS011;42245;42.058;24.700;2022-07-10T07:05:06;7.50;;;5.85;;
56343;SDS011;42245;42.058;24.700;2022-07-10T07:07:32;7.47;;;5.85;;
56343;SDS011;42245;42.058;24.700;2022-07-10T07:09:58;6.60;;;6.00;;
56343;SDS011;42245;42.058;24.700;2022-07-10T07:12:23;6.50;;;5.63;;
56343;SDS011;42245;42.058;24.700;2022-07-10T07:14:49;6.47;;;5.85;;
56343;SDS011;42245;42.058;24.700;2022-07-10T07:17:14;7.65;;;6.13;;
56343;SDS011;42245;42.058;24.700;2022-07-10T07:19:46;7.65;;;6.03;;
56343;SDS011;42245;42.058;24.700;2022-07-10T07:22:31;7.07;;;6.38;;
56343;SDS011;42245;42.058;24.700;2022-07-10T07:25:14;8.30;;;6.38;;
56343;SDS011;42245;42.058;24.700;2022-07-10T07:27:40;7.72;;;6.75;;
56343;SDS011;42245;42.058;24.700;2022-07-10T07:30:06;8.63;;;6.18;;
56343;SDS011;42245;42.058;24.700;2022-07-10T07:32:33;9.75;;;6.32;;
56343;SDS011;42245;42.058;24.700;2022-07-10T07:34:59;6.72;;;6.10;;
56343;SDS011;42245;42.058;24.700;2022-07-10T07:37:34;8.88;;;6.47;;
56343;SDS011;42245;42.058;24.700;2022-07-10T07:40:01;7.30;;;6.60;;
56343;SDS011;42245;42.058;24.700;2022-07-10T07:42:26;8.70;;;5.97;;
56343;SDS011;42245;42.058;24.700;2022-07-10T07:44:52;7.38;;;6.18;;
56343;SDS011;42245;42.058;24.700;2022-07-10T07:47:17;10.10;;;5.93;;
56343;SDS011;42245;42.058;24.700;2022-07-10T07:49:43;7.43;;;5.72;;
56343;SDS011;42245;42.058;24.700;2022-07-10T07:52:08;7.10;;;5.50;;
56343;SDS011;42245;42.058;24.700;2022-07-10T07:54:33;7.10;;;6.30;;
56343;SDS011;42245;42.058;24.700;2022-07-10T07:56:59;6.75;;;6.00;;
56343;SDS011;42245;42.058;24.700;2022-07-10T07:59:24;7.28;;;6.45;;
56343;SDS011;42245;42.058;24.700;2022-07-10T08:01:49;7.35;;;6.22;;
56343;SDS011;42245;42.058;24.700;2022-07-10T08:04:15;7.93;;;6.05;;
56343;SDS011;42245;42.058;24.700;2022-07-10T08:06:40;8.48;;;6.45;;
56343;SDS011;42245;42.058;24.700;2022-07-10T08:09:06;7.80;;;6.18;;
56343;SDS011;42245;42.058;24.700;2022-07-10T08:11:31;13.68;;;6.18;;
56343;SDS011;42245;42.058;24.700;2022-07-10T08:13:57;7.45;;;5.80;;
56343;SDS011;42245;42.058;24.700;2022-07-10T08:16:22;7.10;;;6.40;;
56343;SDS011;42245;42.058;24.700;2022-07-10T08:18:47;7.03;;;6.43;;
56343;SDS011;42245;42.058;24.700;2022-07-10T08:21:13;7.07;;;6.47;;
56343;SDS011;42245;42.058;24.700;2022-07-10T08:23:38;12.32;;;6.63;;
56343;SDS011;42245;42.058;24.700;2022-07-10T08:26:04;9.75;;;6.57;;
56343;SDS011;42245;42.058;24.700;2022-07-10T08:28:29;8.65;;;6.88;;
56343;SDS011;42245;42.058;24.700;2022-07-10T08:30:55;7.93;;;7.22;;
56343;SDS011;42245;42.058;24.700;2022-07-10T08:33:20;7.70;;;7.00;;
56343;SDS011;42245;42.058;24.700;2022-07-10T08:35:46;11.52;;;7.95;;
56343;SDS011;42245;42.058;24.700;2022-07-10T08:38:11;10.90;;;7.43;;
56343;SDS011;42245;42.058;24.700;2022-07-10T08:40:37;8.55;;;7.47;;
56343;SDS011;42245;42.058;24.700;2022-07-10T08:43:03;7.82;;;6.95;;
56343;SDS011;42245;42.058;24.700;2022-07-10T08:45:33;10.45;;;7.75;;
56343;SDS011;42245;42.058;24.700;2022-07-10T08:48:00;7.57;;;6.70;;
56343;SDS011;42245;42.058;24.700;2022-07-10T08:50:28;10.80;;;7.20;;
56343;SDS011;42245;42.058;24.700;2022-07-10T08:52:59;9.35;;;7.15;;
56343;SDS011;42245;42.058;24.700;2022-07-10T08:55:29;8.98;;;7.35;;
56343;SDS011;42245;42.058;24.700;2022-07-10T08:57:54;7.95;;;7.25;;
56343;SDS011;42245;42.058;24.700;2022-07-10T09:00:23;8.70;;;6.78;;
56343;SDS011;42245;42.058;24.700;2022-07-10T09:02:49;8.00;;;7.18;;
56343;SDS011;42245;42.058;24.700;2022-07-10T09:05:14;7.97;;;7.18;;
56343;SDS011;42245;42.058;24.700;2022-07-10T09:07:39;8.98;;;6.72;;
56343;SDS011;42245;42.058;24.700;2022-07-10T09:10:07;7.78;;;6.80;;
56343;SDS011;42245;42.058;24.700;2022-07-10T09:15:25;9.13;;;7.07;;
56343;SDS011;42245;42.058;24.700;2022-07-10T09:17:55;7.72;;;7.03;;
56343;SDS011;42245;42.058;24.700;2022-07-10T09:20:25;8.80;;;7.07;;
56343;SDS011;42245;42.058;24.700;2022-07-10T09:22:51;8.05;;;7.20;;
56343;SDS011;42245;42.058;24.700;2022-07-10T09:25:17;7.25;;;6.55;;
56343;SDS011;42245;42.058;24.700;2022-07-10T09:27:52;7.82;;;7.13;;
56343;SDS011;42245;42.058;24.700;2022-07-10T09:30:32;8.32;;;6.55;;
56343;SDS011;42245;42.058;24.700;2022-07-10T09:41:14;9.23;;;6.55;;
56343;SDS011;42245;42.058;24.700;2022-07-10T09:43:47;7.70;;;6.90;;
56343;SDS011;42245;42.058;24.700;2022-07-10T09:46:35;7.80;;;7.10;;
56343;SDS011;42245;42.058;24.700;2022-07-10T09:51:30;7.93;;;7.22;;
56343;SDS011;42245;42.058;24.700;2022-07-10T09:53:59;8.52;;;6.80;;
56343;SDS011;42245;42.058;24.700;2022-07-10T09:56:25;7.35;;;6.72;;
56343;SDS011;42245;42.058;24.700;2022-07-10T09:58:52;7.35;;;6.68;;
56343;SDS011;42245;42.058;24.700;2022-07-10T10:01:17;7.40;;;6.65;;
56343;SDS011;42245;42.058;24.700;2022-07-10T10:03:43;7.40;;;6.80;;
56343;SDS011;42245;42.058;24.700;2022-07-10T10:06:10;7.38;;;6.70;;
56343;SDS011;42245;42.058;24.700;2022-07-10T10:08:48;7.55;;;6.90;;
56343;SDS011;42245;42.058;24.700;2022-07-10T10:11:20;9.20;;;7.03;;
56343;SDS011;42245;42.058;24.700;2022-07-10T10:13:46;9.98;;;7.72;;
56343;SDS011;42245;42.058;24.700;2022-07-10T10:16:12;9.10;;;6.97;;
56343;SDS011;42245;42.058;24.700;2022-07-10T10:18:37;7.80;;;7.05;;
56343;SDS011;42245;42.058;24.700;2022-07-10T10:21:23;9.02;;;7.45;;
56343;SDS011;42245;42.058;24.700;2022-07-10T10:23:50;8.77;;;8.00;;
56343;SDS011;42245;42.058;24.700;2022-07-10T10:26:16;8.30;;;7.60;;
56343;SDS011;42245;42.058;24.700;2022-07-10T10:28:43;8.65;;;7.85;;
56343;SDS011;42245;42.058;24.700;2022-07-10T10:31:08;8.25;;;7.47;;
56343;SDS011;42245;42.058;24.700;2022-07-10T10:36:02;9.00;;;7.60;;
56343;SDS011;42245;42.058;24.700;2022-07-10T10:41:22;7.70;;;7.00;;
56343;SDS011;42245;42.058;24.700;2022-07-10T10:49:15;7.25;;;6.55;;
56343;SDS011;42245;42.058;24.700;2022-07-10T10:54:29;7.53;;;6.78;;
56343;SDS011;42245;42.058;24.700;2022-07-10T10:57:37;10.00;;;7.22;;
56343;SDS011;42245;42.058;24.700;2022-07-10T10:59:44;8.73;;;6.65;;
56343;SDS011;42245;42.058;24.700;2022-07-10T11:04:51;7.15;;;6.45;;
56343;SDS011;42245;42.058;24.700;2022-07-10T11:07:53;8.65;;;6.53;;
56343;SDS011;42245;42.058;24.700;2022-07-10T11:15:23;6.88;;;6.20;;
56343;SDS011;42245;42.058;24.700;2022-07-10T11:17:50;8.10;;;5.93;;
56343;SDS011;42245;42.058;24.700;2022-07-10T11:20:15;6.38;;;5.70;;
56343;SDS011;42245;42.058;24.700;2022-07-10T11:25:42;11.68;;;6.30;;
56343;SDS011;42245;42.058;24.700;2022-07-10T11:28:15;6.13;;;5.63;;
56343;SDS011;42245;42.058;24.700;2022-07-10T11:33:16;5.78;;;5.20;;
56343;SDS011;42245;42.058;24.700;2022-07-10T11:35:45;6.35;;;5.22;;
56343;SDS011;42245;42.058;24.700;2022-07-10T11:38:11;6.53;;;5.25;;
56343;SDS011;42245;42.058;24.700;2022-07-10T11:40:37;6.05;;;5.45;;
56343;SDS011;42245;42.058;24.700;2022-07-10T11:43:03;6.95;;;5.10;;
56343;SDS011;42245;42.058;24.700;2022-07-10T11:45:32;6.35;;;5.75;;
56343;SDS011;42245;42.058;24.700;2022-07-10T11:48:00;5.95;;;5.38;;
56343;SDS011;42245;42.058;24.700;2022-07-10T11:50:26;6.38;;;5.63;;
56343;SDS011;42245;42.058;24.700;2022-07-10T11:52:52;5.50;;;5.00;;
56343;SDS011;42245;42.058;24.700;2022-07-10T11:55:20;5.78;;;5.28;;
56343;SDS011;42245;42.058;24.700;2022-07-10T11:57:46;5.90;;;5.40;;
56343;SDS011;42245;42.058;24.700;2022-07-10T12:00:25;5.75;;;5.15;;
56343;SDS011;42245;42.058;24.700;2022-07-10T12:02:51;6.57;;;5.00;;
56343;SDS011;42245;42.058;24.700;2022-07-10T12:05:36;7.00;;;4.88;;
56343;SDS011;42245;42.058;24.700;2022-07-10T12:08:03;5.40;;;5.00;;
56343;SDS011;42245;42.058;24.700;2022-07-10T12:10:29;8.25;;;4.82;;
56343;SDS011;42245;42.058;24.700;2022-07-10T12:15:44;5.55;;;5.00;;
56343;SDS011;42245;42.058;24.700;2022-07-10T12:18:16;4.93;;;4.53;;
56343;SDS011;42245;42.058;24.700;2022-07-10T12:20:44;5.05;;;4.55;;
56343;SDS011;42245;42.058;24.700;2022-07-10T12:23:12;5.20;;;4.80;;
56343;SDS011;42245;42.058;24.700;2022-07-10T12:25:45;4.95;;;4.55;;
56343;SDS011;42245;42.058;24.700;2022-07-10T12:28:13;4.95;;;4.45;;
56343;SDS011;42245;42.058;24.700;2022-07-10T12:30:39;5.38;;;4.97;;
56343;SDS011;42245;42.058;24.700;2022-07-10T12:33:15;5.32;;;4.85;;
56343;SDS011;42245;42.058;24.700;2022-07-10T12:35:56;5.28;;;4.78;;
56343;SDS011;42245;42.058;24.700;2022-07-10T12:38:23;7.05;;;4.90;;
56343;SDS011;42245;42.058;24.700;2022-07-10T12:40:50;6.72;;;4.85;;
56343;SDS011;42245;42.058;24.700;2022-07-10T12:43:26;4.93;;;4.53;;
56343;SDS011;42245;42.058;24.700;2022-07-10T12:46:14;8.35;;;5.07;;
56343;SDS011;42245;42.058;24.700;2022-07-10T12:49:01;5.80;;;5.30;;
56343;SDS011;42245;42.058;24.700;2022-07-10T12:51:32;5.70;;;5.13;;
56343;SDS011;42245;42.058;24.700;2022-07-10T12:53:58;5.30;;;4.80;;
56343;SDS011;42245;42.058;24.700;2022-07-10T12:56:27;9.98;;;5.00;;
56343;SDS011;42245;42.058;24.700;2022-07-10T12:58:54;6.45;;;4.90;;
56343;SDS011;42245;42.058;24.700;2022-07-10T13:01:19;5.45;;;4.63;;
56343;SDS011;42245;42.058;24.700;2022-07-10T13:03:44;7.88;;;4.95;;
56343;SDS011;42245;42.058;24.700;2022-07-10T13:08:55;5.53;;;5.00;;
56343;SDS011;42245;42.058;24.700;2022-07-10T13:11:20;4.75;;;4.40;;
56343;SDS011;42245;42.058;24.700;2022-07-10T13:13:46;8.35;;;5.45;;
56343;SDS011;42245;42.058;24.700;2022-07-10T13:16:12;5.75;;;5.00;;
56343;SDS011;42245;42.058;24.700;2022-07-10T13:18:38;6.10;;;4.93;;
56343;SDS011;42245;42.058;24.700;2022-07-10T13:21:07;5.53;;;5.03;;
56343;SDS011;42245;42.058;24.700;2022-07-10T13:23:32;5.70;;;5.20;;
56343;SDS011;42245;42.058;24.700;2022-07-10T13:25:58;7.47;;;4.78;;
56343;SDS011;42245;42.058;24.700;2022-07-10T13:28:24;5.75;;;5.13;;
56343;SDS011;42245;42.058;24.700;2022-07-10T13:30:50;5.82;;;4.60;;
56343;SDS011;42245;42.058;24.700;2022-07-10T13:33:15;4.50;;;4.13;;
56343;SDS011;42245;42.058;24.700;2022-07-10T13:35:41;4.93;;;4.53;;
56343;SDS011;42245;42.058;24.700;2022-07-10T13:38:07;5.65;;;4.43;;
56343;SDS011;42245;42.058;24.700;2022-07-10T13:40:33;4.68;;;4.30;;
56343;SDS011;42245;42.058;24.700;2022-07-10T13:42:59;5.53;;;5.03;;
56343;SDS011;42245;42.058;24.700;2022-07-10T13:45:25;5.53;;;4.65;;
56343;SDS011;42245;42.058;24.700;2022-07-10T13:47:55;6.45;;;4.80;;
56343;SDS011;42245;42.058;24.700;2022-07-10T13:50:21;5.60;;;5.10;;
56343;SDS011;42245;42.058;24.700;2022-07-10T13:52:47;5.00;;;4.50;;
56343;SDS011;42245;42.058;24.700;2022-07-10T13:55:13;6.40;;;4.60;;
56343;SDS011;42245;42.058;24.700;2022-07-10T13:57:39;5.15;;;4.75;;
56343;SDS011;42245;42.058;24.700;2022-07-10T14:00:04;6.53;;;5.07;;
56343;SDS011;42245;42.058;24.700;2022-07-10T14:02:30;5.50;;;4.97;;
56343;SDS011;42245;42.058;24.700;2022-07-10T14:04:56;5.55;;;4.18;;
56343;SDS011;42245;42.058;24.700;2022-07-10T14:07:21;9.38;;;5.03;;
56343;SDS011;42245;42.058;24.700;2022-07-10T14:09:47;5.07;;;4.65;;
56343;SDS011;42245;42.058;24.700;2022-07-10T14:12:12;5.13;;;4.72;;
56343;SDS011;42245;42.058;24.700;2022-07-10T14:14:37;5.10;;;4.70;;
56343;SDS011;42245;42.058;24.700;2022-07-10T14:17:03;4.32;;;3.97;;
56343;SDS011;42245;42.058;24.700;2022-07-10T14:19:28;5.00;;;4.50;;
56343;SDS011;42245;42.058;24.700;2022-07-10T14:21:54;6.13;;;4.90;;
56343;SDS011;42245;42.058;24.700;2022-07-10T14:24:19;5.15;;;4.55;;
56343;SDS011;42245;42.058;24.700;2022-07-10T14:26:45;6.90;;;4.88;;
56343;SDS011;42245;42.058;24.700;2022-07-10T14:29:11;5.30;;;4.80;;
56343;SDS011;42245;42.058;24.700;2022-07-10T14:31:38;5.68;;;5.15;;
56343;SDS011;42245;42.058;24.700;2022-07-10T14:34:03;6.85;;;4.93;;
56343;SDS011;42245;42.058;24.700;2022-07-10T14:36:30;5.25;;;4.75;;
56343;SDS011;42245;42.058;24.700;2022-07-10T14:38:56;5.85;;;4.70;;
56343;SDS011;42245;42.058;24.700;2022-07-10T14:41:22;5.90;;;5.40;;
56343;SDS011;42245;42.058;24.700;2022-07-10T14:43:50;5.00;;;4.60;;
56343;SDS011;42245;42.058;24.700;2022-07-10T14:46:16;8.50;;;4.78;;
56343;SDS011;42245;42.058;24.700;2022-07-10T14:48:41;6.80;;;4.70;;
56343;SDS011;42245;42.058;24.700;2022-07-10T14:51:07;7.80;;;5.20;;
56343;SDS011;42245;42.058;24.700;2022-07-10T14:53:33;7.20;;;5.15;;
56343;SDS011;42245;42.058;24.700;2022-07-10T14:56:02;5.72;;;5.10;;
56343;SDS011;42245;42.058;24.700;2022-07-10T14:58:29;5.32;;;4.82;;
56343;SDS011;42245;42.058;24.700;2022-07-10T15:00:54;7.93;;;4.93;;
56343;SDS011;42245;42.058;24.700;2022-07-10T15:03:20;5.57;;;4.97;;
56343;SDS011;42245;42.058;24.700;2022-07-10T15:05:45;7.95;;;5.53;;
56343;SDS011;42245;42.058;24.700;2022-07-10T15:08:10;10.90;;;5.72;;
56343;SDS011;42245;42.058;24.700;2022-07-10T15:10:36;7.28;;;5.03;;
56343;SDS011;42245;42.058;24.700;2022-07-10T15:13:01;6.90;;;4.90;;
56343;SDS011;42245;42.058;24.700;2022-07-10T15:15:30;6.00;;;4.90;;
56343;SDS011;42245;42.058;24.700;2022-07-10T15:17:58;6.43;;;4.95;;